Time;durP1;ratioP1;P1;durP2;ratioP2;P2;SDS_P1;SDS_P2;PMS_P1;PMS_P2;Temp;Humidity;BMP_temperature;BMP_pressure;BME280_temperature;BME280_humidity;BME280_pressure;Samples;Min_cycle;Max_cycle;Signal;HPM_P1;HPM_P2
2022/09/06 00:01:50;;;;;;;7.82;4.30;;;20.90;72.20;;;;;;5071867;28;20456;-68
2022/09/06 00:04:16;;;;;;;8.25;4.32;;;20.90;72.30;;;;;;5071885;28;20050;-69
2022/09/06 00:06:41;;;;;;;8.65;4.55;;;20.90;72.50;;;;;;5071955;28;20032;-68
2022/09/06 00:09:07;;;;;;;4.75;3.97;;;20.80;72.60;;;;;;5071618;28;20036;-69
2022/09/06 00:11:32;;;;;;;7.40;4.28;;;20.80;72.80;;;;;;5071824;28;20124;-68
2022/09/06 00:13:58;;;;;;;5.20;4.47;;;20.70;72.90;;;;;;5071415;28;20398;-68
2022/09/06 00:16:24;;;;;;;6.53;4.05;;;20.70;72.90;;;;;;5071867;28;20098;-69
2022/09/06 00:18:53;;;;;;;6.45;4.20;;;20.70;73.00;;;;;;5071851;28;20407;-68
2022/09/06 00:21:26;;;;;;;5.40;4.22;;;20.70;73.10;;;;;;5071351;28;20425;-69
2022/09/06 00:23:52;;;;;;;5.55;4.25;;;20.70;73.20;;;;;;5071621;28;20581;-68
2022/09/06 00:26:18;;;;;;;5.30;4.47;;;20.60;73.50;;;;;;5071696;28;20028;-68
2022/09/06 00:28:44;;;;;;;11.30;4.95;;;20.60;73.60;;;;;;5071849;28;20041;-69
2022/09/06 00:31:12;;;;;;;6.95;4.18;;;20.60;73.60;;;;;;5071222;28;20035;-69
2022/09/06 00:33:37;;;;;;;5.53;4.07;;;20.50;73.80;;;;;;5071724;28;20044;-69
2022/09/06 00:36:03;;;;;;;8.20;4.18;;;20.40;73.90;;;;;;5071564;28;20045;-68
2022/09/06 00:38:29;;;;;;;4.85;4.25;;;20.50;74.00;;;;;;5071843;28;20036;-68
2022/09/06 00:40:56;;;;;;;5.57;4.50;;;20.40;74.10;;;;;;5071384;28;20049;-68
2022/09/06 00:43:21;;;;;;;5.45;3.70;;;20.40;74.20;;;;;;5071548;28;20041;-68
2022/09/06 00:45:47;;;;;;;5.15;4.30;;;20.40;74.30;;;;;;5071540;28;20504;-68
2022/09/06 00:48:14;;;;;;;6.15;4.60;;;20.40;74.30;;;;;;5071584;28;20040;-68
2022/09/06 00:50:40;;;;;;;7.43;4.22;;;20.30;75.10;;;;;;5071035;28;20066;-68
2022/09/06 00:53:05;;;;;;;10.75;4.78;;;20.30;74.60;;;;;;5071604;28;20040;-68
2022/09/06 00:55:31;;;;;;;6.55;4.78;;;20.20;74.60;;;;;;5071764;28;20033;-68
2022/09/06 00:57:57;;;;;;;6.97;4.63;;;20.20;74.80;;;;;;5071481;28;20490;-68
2022/09/06 01:00:23;;;;;;;5.50;4.82;;;20.20;75.00;;;;;;5071126;28;20131;-68
2022/09/06 01:02:48;;;;;;;5.50;4.35;;;20.10;75.20;;;;;;5071334;28;20502;-68
2022/09/06 01:05:15;;;;;;;5.97;4.18;;;20.10;75.40;;;;;;5071163;28;20052;-68
2022/09/06 01:07:50;;;;;;;8.70;4.82;;;20.10;75.50;;;;;;5071226;28;20494;-68
2022/09/06 01:10:41;;;;;;;7.60;4.82;;;20.10;75.60;;;;;;5071071;28;20067;-69
2022/09/06 01:13:34;;;;;;;6.45;3.95;;;20.00;75.80;;;;;;5071226;28;20506;-68
2022/09/06 01:16:16;;;;;;;6.72;4.32;;;20.00;76.00;;;;;;5071281;28;20406;-68
2022/09/06 01:18:50;;;;;;;9.95;4.60;;;20.00;75.90;;;;;;5071379;28;20037;-68
2022/09/06 01:21:27;;;;;;;4.82;4.07;;;19.90;75.90;;;;;;5070903;28;20047;-68
2022/09/06 01:24:12;;;;;;;5.60;4.25;;;19.90;76.00;;;;;;5071090;28;20049;-68
2022/09/06 01:27:12;;;;;;;6.05;4.05;;;19.90;76.20;;;;;;5074861;28;20040;-68
2022/09/06 01:30:01;;;;;;;5.20;4.60;;;19.90;76.30;;;;;;5074616;28;20124;-68
2022/09/06 01:32:59;;;;;;;5.25;4.32;;;19.90;76.30;;;;;;5073472;28;20607;-68
2022/09/06 01:35:27;;;;;;;7.00;4.28;;;19.90;76.70;;;;;;5074796;28;20427;-68
2022/09/06 01:37:54;;;;;;;5.05;4.25;;;19.80;76.60;;;;;;5074696;28;20430;-68
2022/09/06 01:40:20;;;;;;;6.93;4.35;;;19.80;76.80;;;;;;5072998;28;20041;-68
2022/09/06 01:42:48;;;;;;;6.47;3.88;;;19.80;76.80;;;;;;5073243;28;20040;-68
2022/09/06 01:45:18;;;;;;;7.43;4.15;;;19.90;76.80;;;;;;5074691;28;20166;-68
2022/09/06 01:48:12;;;;;;;5.07;3.88;;;19.90;76.80;;;;;;5074679;28;20033;-69
2022/09/06 01:51:03;;;;;;;5.95;4.82;;;19.90;76.60;;;;;;5074065;28;20448;-68
2022/09/06 01:54:02;;;;;;;7.05;4.78;;;19.90;76.90;;;;;;5074429;28;20418;-68
2022/09/06 01:56:48;;;;;;;9.50;4.60;;;19.90;76.80;;;;;;5021815;28;20053;-68
2022/09/06 01:59:34;;;;;;;5.93;5.13;;;19.80;77.20;;;;;;5074055;28;20039;-68
2022/09/06 02:02:08;;;;;;;6.57;5.00;;;19.80;77.30;;;;;;5074207;28;20462;-68
2022/09/06 02:04:44;;;;;;;7.20;4.35;;;19.80;77.60;;;;;;5074289;28;20040;-68
2022/09/06 02:07:27;;;;;;;5.53;4.97;;;19.80;77.50;;;;;;5074315;28;20048;-68
2022/09/06 02:10:07;;;;;;;5.80;5.25;;;19.80;77.50;;;;;;5073795;28;20040;-69
2022/09/06 02:12:36;;;;;;;7.47;4.80;;;19.70;77.90;;;;;;5074262;28;20589;-69
2022/09/06 02:15:07;;;;;;;9.85;3.97;;;19.70;78.20;;;;;;5074138;28;20072;-68
2022/09/06 02:17:37;;;;;;;5.75;4.47;;;19.70;78.20;;;;;;5072888;28;20044;-68
2022/09/06 02:20:15;;;;;;;5.90;5.07;;;19.70;78.20;;;;;;5072548;28;20098;-69
2022/09/06 02:22:45;;;;;;;7.22;4.97;;;19.70;78.20;;;;;;5074101;28;20052;-68
2022/09/06 02:25:17;;;;;;;10.23;5.55;;;19.70;78.50;;;;;;5073921;28;20452;-68
2022/09/06 02:27:43;;;;;;;12.73;5.03;;;19.60;78.90;;;;;;5073899;28;20040;-69
2022/09/06 02:30:09;;;;;;;6.30;4.70;;;19.60;79.00;;;;;;5073297;28;20044;-68
2022/09/06 02:32:42;;;;;;;8.52;4.95;;;19.60;79.10;;;;;;5062150;22;20457;-66
2022/09/06 02:35:10;;;;;;;;;;;19.60;79.10;;;;;;5034050;28;20041;-66
2022/09/06 02:37:36;;;;;;;5.47;4.97;;;19.50;79.40;;;;;;5033128;28;19917;-66
2022/09/06 02:40:02;;;;;;;6.30;5.65;;;19.60;79.70;;;;;;5033420;28;20525;-66
2022/09/06 02:42:28;;;;;;;7.28;4.85;;;19.60;79.50;;;;;;5033586;28;20048;-66
2022/09/06 02:44:54;;;;;;;9.68;5.13;;;19.60;79.80;;;;;;5033421;28;20038;-66
2022/09/06 02:47:19;;;;;;;6.63;5.30;;;19.60;79.80;;;;;;5033276;28;20034;-66
2022/09/06 02:49:45;;;;;;;6.25;5.10;;;19.60;79.80;;;;;;5033268;28;20049;-66
2022/09/06 02:52:10;;;;;;;8.65;5.28;;;19.60;79.90;;;;;;5033533;28;20483;-67
2022/09/06 02:54:36;;;;;;;8.35;5.32;;;19.60;80.20;;;;;;5033411;28;20133;-67
2022/09/06 02:57:01;;;;;;;10.57;5.47;;;19.50;80.20;;;;;;5033219;28;20055;-68
2022/09/06 02:59:27;;;;;;;6.72;5.40;;;19.50;80.30;;;;;;5032991;28;20045;-67
2022/09/06 03:01:52;;;;;;;5.95;5.35;;;19.50;80.70;;;;;;5033063;28;20048;-67
2022/09/06 03:04:18;;;;;;;7.18;5.18;;;19.50;80.70;;;;;;5033213;28;20041;-67
2022/09/06 03:06:43;;;;;;;8.20;6.20;;;19.50;80.70;;;;;;5033256;28;20038;-66
2022/09/06 03:09:09;;;;;;;7.22;5.65;;;19.40;81.20;;;;;;5033099;28;20486;-67
2022/09/06 03:11:35;;;;;;;7.60;5.60;;;19.40;81.20;;;;;;5032901;28;20526;-67
2022/09/06 03:14:01;;;;;;;6.07;5.35;;;19.40;81.20;;;;;;5031843;28;20454;-68
2022/09/06 03:16:26;;;;;;;8.35;5.55;;;19.40;81.40;;;;;;5032838;28;20041;-68
2022/09/06 03:18:52;;;;;;;6.80;5.50;;;19.40;81.50;;;;;;5033064;28;20048;-68
2022/09/06 03:21:17;;;;;;;6.13;5.53;;;19.40;81.50;;;;;;5032724;28;20392;-68
2022/09/06 03:23:44;;;;;;;6.82;5.75;;;19.40;81.60;;;;;;5032807;28;20491;-68
2022/09/06 03:26:10;;;;;;;7.53;5.97;;;19.40;81.90;;;;;;5032853;28;20042;-68
2022/09/06 03:28:35;;;;;;;8.02;6.10;;;19.30;82.10;;;;;;5032716;28;20049;-68
2022/09/06 03:31:01;;;;;;;9.77;5.63;;;19.40;82.30;;;;;;5032049;28;20044;-68
2022/09/06 03:33:26;;;;;;;7.70;6.13;;;19.30;82.30;;;;;;5032532;28;20038;-68
2022/09/06 03:35:58;;;;;;;6.68;5.80;;;19.30;82.50;;;;;;5032743;28;20083;-68
2022/09/06 03:38:25;;;;;;;7.88;6.05;;;19.30;82.60;;;;;;5032754;28;20419;-68
2022/09/06 03:40:51;;;;;;;6.82;5.45;;;19.30;82.80;;;;;;5032039;28;20037;-68
2022/09/06 03:43:17;;;;;;;8.55;6.32;;;19.30;83.20;;;;;;5032277;28;20478;-68
2022/09/06 03:45:51;;;;;;;7.07;5.78;;;19.20;83.30;;;;;;5032236;28;20073;-66
2022/09/06 03:48:17;;;;;;;7.38;6.15;;;19.20;83.70;;;;;;5030491;28;20045;-66
2022/09/06 03:50:49;;;;;;;8.85;6.57;;;19.10;84.00;;;;;;5032002;28;20067;-67
2022/09/06 03:53:16;;;;;;;8.43;6.53;;;19.10;84.40;;;;;;5032245;28;20033;-67
2022/09/06 03:55:50;;;;;;;9.43;6.68;;;19.10;84.70;;;;;;5032157;28;20037;-67
2022/09/06 03:58:18;;;;;;;7.05;6.35;;;19.10;85.10;;;;;;5032118;28;20041;-66
2022/09/06 04:00:44;;;;;;;8.93;6.95;;;19.10;85.10;;;;;;5032017;28;20080;-67
2022/09/06 04:03:09;;;;;;;7.43;6.72;;;19.10;85.40;;;;;;5031920;28;20073;-67
2022/09/06 04:05:35;;;;;;;9.90;6.57;;;19.10;85.80;;;;;;5032149;28;20045;-67
2022/09/06 04:08:01;;;;;;;13.70;7.72;;;19.10;86.20;;;;;;5032115;28;20511;-67
2022/09/06 04:10:26;;;;;;;8.93;6.68;;;19.10;86.40;;;;;;5031545;28;20041;-67
2022/09/06 04:12:52;;;;;;;10.05;7.53;;;19.10;86.70;;;;;;5031887;28;20042;-67
2022/09/06 04:15:18;;;;;;;8.13;6.82;;;19.00;87.00;;;;;;5031995;28;20052;-67
2022/09/06 04:17:47;;;;;;;9.52;7.40;;;19.00;87.20;;;;;;5031828;28;20041;-67
2022/09/06 04:20:14;;;;;;;8.77;6.72;;;19.00;87.50;;;;;;5031694;28;20034;-67
2022/09/06 04:22:39;;;;;;;7.45;6.72;;;19.00;88.00;;;;;;5031795;28;20510;-67
2022/09/06 04:25:05;;;;;;;10.65;7.43;;;19.00;88.10;;;;;;5031704;28;20038;-67
2022/09/06 04:27:31;;;;;;;9.70;7.10;;;18.90;88.60;;;;;;5031574;28;20162;-67
2022/09/06 04:29:56;;;;;;;7.45;6.75;;;19.00;88.90;;;;;;5031760;28;20498;-67
2022/09/06 04:32:22;;;;;;;9.55;7.43;;;18.90;89.30;;;;;;5031568;28;20413;-67
2022/09/06 04:34:48;;;;;;;9.93;7.68;;;18.90;89.50;;;;;;5031726;28;20095;-66
2022/09/06 04:37:18;;;;;;;9.88;6.80;;;18.90;89.70;;;;;;5031758;28;20072;-67
2022/09/06 04:39:45;;;;;;;8.48;7.35;;;18.90;90.00;;;;;;5031321;28;20049;-66
2022/09/06 04:42:11;;;;;;;12.23;7.75;;;18.90;90.10;;;;;;5031561;28;20128;-67
2022/09/06 04:44:37;;;;;;;9.02;7.85;;;18.90;90.20;;;;;;5031657;28;20051;-66
2022/09/06 04:47:06;;;;;;;9.57;6.80;;;19.00;90.30;;;;;;5031603;28;20071;-67
2022/09/06 04:49:31;;;;;;;8.43;7.15;;;19.00;90.30;;;;;;5031175;28;20707;-66
2022/09/06 04:51:57;;;;;;;10.68;7.35;;;19.00;90.70;;;;;;5030493;28;20073;-67
2022/09/06 04:54:22;;;;;;;14.05;7.95;;;19.00;90.50;;;;;;5031432;28;20076;-67
2022/09/06 04:56:48;;;;;;;8.13;7.18;;;19.00;90.60;;;;;;5031452;28;20564;-67
2022/09/06 04:59:13;;;;;;;10.88;8.10;;;19.00;90.60;;;;;;5032743;28;20091;-67
2022/09/06 05:01:39;;;;;;;11.73;8.23;;;19.00;90.70;;;;;;5035417;28;20052;-67
2022/09/06 05:04:04;;;;;;;8.55;7.65;;;19.00;90.80;;;;;;5035375;28;20049;-67
2022/09/06 05:06:30;;;;;;;9.55;7.95;;;19.00;91.00;;;;;;5035315;28;20491;-67
2022/09/06 05:08:55;;;;;;;9.63;7.95;;;19.00;91.30;;;;;;5035076;28;20045;-67
2022/09/06 05:11:21;;;;;;;9.15;8.13;;;18.90;91.50;;;;;;5035129;28;20044;-67
2022/09/06 05:13:48;;;;;;;12.10;8.55;;;18.90;91.90;;;;;;5035361;28;20037;-67
2022/09/06 05:16:14;;;;;;;8.80;7.90;;;18.90;92.20;;;;;;5035276;28;20048;-68
2022/09/06 05:18:39;;;;;;;9.50;8.55;;;18.90;92.50;;;;;;5035232;28;20049;-67
2022/09/06 05:21:06;;;;;;;10.07;8.68;;;18.90;92.90;;;;;;5033343;28;20044;-69
2022/09/06 05:23:32;;;;;;;11.73;8.50;;;18.90;93.20;;;;;;5034831;28;20053;-68
2022/09/06 05:25:57;;;;;;;8.77;7.55;;;18.90;93.40;;;;;;5035178;28;20403;-68
2022/09/06 05:28:23;;;;;;;9.60;8.63;;;18.90;93.80;;;;;;5035113;28;20120;-68
2022/09/06 05:30:48;;;;;;;11.07;8.20;;;18.80;93.90;;;;;;5033155;28;20069;-68
2022/09/06 05:33:20;;;;;;;10.48;8.15;;;18.80;94.20;;;;;;5034946;28;20456;-68
2022/09/06 05:35:47;;;;;;;9.75;8.68;;;18.80;94.40;;;;;;5034915;28;20133;-68
2022/09/06 05:38:12;;;;;;;11.05;9.73;;;18.80;94.50;;;;;;5034770;28;20048;-68
2022/09/06 05:40:38;;;;;;;10.80;9.70;;;18.80;95.10;;;;;;5034546;28;20401;-68
2022/09/06 05:43:03;;;;;;;12.90;9.75;;;18.70;95.40;;;;;;5034959;28;20033;-68
2022/09/06 05:45:29;;;;;;;10.73;8.90;;;18.80;95.70;;;;;;5034579;28;20041;-68
2022/09/06 05:47:55;;;;;;;11.63;9.00;;;18.70;95.70;;;;;;5034587;28;20112;-68
2022/09/06 05:50:20;;;;;;;10.18;9.07;;;18.70;95.80;;;;;;5034244;28;20065;-68
2022/09/06 05:52:46;;;;;;;10.27;9.27;;;18.70;96.00;;;;;;5033088;28;20038;-68
2022/09/06 05:55:11;;;;;;;12.43;10.68;;;18.70;96.50;;;;;;5034658;28;20041;-68
2022/09/06 05:57:37;;;;;;;11.20;9.65;;;18.80;96.50;;;;;;5034411;28;20083;-68
2022/09/06 06:00:04;;;;;;;12.18;9.57;;;18.70;96.40;;;;;;5034029;28;20045;-68
2022/09/06 06:02:29;;;;;;;11.15;9.32;;;18.70;96.80;;;;;;5034281;28;20045;-68
2022/09/06 06:04:55;;;;;;;11.63;10.25;;;18.70;96.80;;;;;;5034190;28;20065;-68
2022/09/06 06:07:21;;;;;;;11.27;9.82;;;18.70;96.80;;;;;;5034040;28;20415;-68
2022/09/06 06:09:46;;;;;;;15.13;11.77;;;18.70;96.90;;;;;;5034108;28;20060;-68
2022/09/06 06:12:12;;;;;;;14.05;12.55;;;18.70;97.10;;;;;;5033098;28;20403;-68
2022/09/06 06:14:37;;;;;;;13.32;11.82;;;18.70;97.20;;;;;;5034112;28;20051;-68
2022/09/06 06:17:03;;;;;;;13.00;11.23;;;18.70;97.70;;;;;;5034000;28;20679;-68
2022/09/06 06:19:28;;;;;;;17.10;12.63;;;18.70;97.70;;;;;;5033700;28;20077;-68
2022/09/06 06:21:55;;;;;;;14.85;11.82;;;18.80;97.90;;;;;;5033670;28;20124;-68
2022/09/06 06:24:21;;;;;;;13.57;10.45;;;18.80;97.80;;;;;;5033849;28;20052;-68
2022/09/06 06:26:47;;;;;;;15.68;11.68;;;18.80;98.10;;;;;;5032828;28;20037;-68
2022/09/06 06:29:13;;;;;;;14.95;12.70;;;18.90;98.40;;;;;;5032479;28;20048;-68
2022/09/06 06:31:39;;;;;;;13.93;12.52;;;18.90;98.30;;;;;;5033601;28;20450;-68
2022/09/06 06:34:05;;;;;;;14.50;13.10;;;18.90;98.20;;;;;;5033699;28;20095;-68
2022/09/06 06:36:33;;;;;;;17.98;15.25;;;18.90;98.30;;;;;;5033561;28;20049;-68
2022/09/06 06:39:00;;;;;;;19.73;15.13;;;19.00;98.30;;;;;;5033759;28;20046;-68
2022/09/06 06:41:27;;;;;;;25.65;15.82;;;19.00;98.40;;;;;;5033418;28;20048;-69
2022/09/06 06:43:55;;;;;;;16.08;14.38;;;19.00;98.40;;;;;;5033395;28;20547;-68
2022/09/06 06:46:22;;;;;;;16.02;14.30;;;19.00;98.60;;;;;;5033523;28;20037;-68
2022/09/06 06:48:48;;;;;;;19.33;13.85;;;19.10;98.70;;;;;;5033431;28;20597;-68
2022/09/06 06:51:18;;;;;;;15.70;14.18;;;19.10;98.70;;;;;;5033000;28;20034;-68
2022/09/06 06:53:46;;;;;;;16.02;14.35;;;19.10;98.80;;;;;;5033592;28;20042;-68
2022/09/06 06:56:14;;;;;;;16.80;13.55;;;18.90;99.00;;;;;;5033378;28;20090;-68
2022/09/06 06:58:40;;;;;;;17.20;12.50;;;19.00;99.30;;;;;;5033203;28;20517;-68
2022/09/06 07:01:05;;;;;;;18.83;14.63;;;19.10;99.30;;;;;;5032701;28;20073;-69
2022/09/06 07:03:31;;;;;;;23.00;13.80;;;19.00;99.40;;;;;;5033027;28;20042;-69
2022/09/06 07:05:56;;;;;;;16.45;13.23;;;19.00;99.70;;;;;;5033356;28;20044;-69
2022/09/06 07:08:22;;;;;;;15.05;12.82;;;19.00;99.40;;;;;;5033557;28;20091;-69
2022/09/06 07:10:47;;;;;;;15.65;13.75;;;19.00;99.50;;;;;;5032825;28;20555;-69
2022/09/06 07:13:13;;;;;;;16.67;14.52;;;19.00;99.70;;;;;;5032983;28;20047;-68
2022/09/06 07:15:38;;;;;;;17.65;15.13;;;19.10;99.90;;;;;;5032844;28;20068;-68
2022/09/06 07:18:04;;;;;;;19.52;15.20;;;19.00;99.90;;;;;;5030898;28;20063;-68
2022/09/06 07:20:30;;;;;;;18.13;16.23;;;19.10;99.90;;;;;;5033006;28;20368;-68
2022/09/06 07:23:07;;;;;;;20.42;15.48;;;19.00;99.90;;;;;;5031797;28;20043;-68
2022/09/06 07:25:33;;;;;;;17.00;15.23;;;19.10;99.90;;;;;;5032795;28;20046;-68
2022/09/06 07:28:08;;;;;;;18.45;16.48;;;19.00;99.90;;;;;;5032774;28;20049;-68
2022/09/06 07:30:38;;;;;;;19.67;15.40;;;19.00;99.90;;;;;;5031138;28;20121;-68
2022/09/06 07:33:04;;;;;;;19.63;15.75;;;19.10;99.90;;;;;;5032508;28;20033;-68
2022/09/06 07:35:30;;;;;;;20.25;18.13;;;19.20;99.90;;;;;;5032308;28;20539;-68
2022/09/06 07:37:58;;;;;;;20.00;17.27;;;19.30;99.90;;;;;;5032263;28;20076;-69
2022/09/06 07:40:25;;;;;;;21.50;17.35;;;19.80;99.40;;;;;;5032253;28;20049;-68
2022/09/06 07:42:51;;;;;;;19.17;17.00;;;20.00;98.50;;;;;;5032454;28;20049;-68
2022/09/06 07:45:18;;;;;;;20.50;16.65;;;20.40;97.40;;;;;;5032220;28;20038;-68
2022/09/06 07:47:44;;;;;;;19.00;16.73;;;20.80;96.40;;;;;;5032611;28;20095;-68
2022/09/06 07:50:10;;;;;;;21.88;18.23;;;21.20;95.40;;;;;;5030853;28;20115;-68
2022/09/06 07:52:35;;;;;;;20.48;17.08;;;21.40;94.40;;;;;;5032156;28;20069;-68
2022/09/06 07:55:01;;;;;;;20.23;18.10;;;21.70;93.60;;;;;;5032331;28;20044;-68
2022/09/06 07:57:26;;;;;;;23.20;18.55;;;21.90;92.90;;;;;;5032256;28;20045;-68
2022/09/06 07:59:52;;;;;;;20.50;18.40;;;22.20;92.20;;;;;;5031846;28;20403;-69
2022/09/06 08:02:17;;;;;;;25.13;16.92;;;22.40;91.50;;;;;;5031083;28;20045;-69
2022/09/06 08:04:43;;;;;;;22.60;16.38;;;22.70;91.00;;;;;;5031615;28;20521;-69
2022/09/06 08:07:09;;;;;;;18.73;16.02;;;22.70;90.20;;;;;;5029074;28;20507;-68
2022/09/06 08:09:35;;;;;;;18.65;16.75;;;22.70;89.90;;;;;;5030979;28;20129;-67
2022/09/06 08:12:05;;;;;;;21.27;17.13;;;22.60;89.10;;;;;;5031239;28;20040;-67
2022/09/06 08:14:31;;;;;;;19.13;14.90;;;22.70;89.20;;;;;;5031738;28;20736;-68
2022/09/06 08:16:57;;;;;;;16.42;14.02;;;23.00;88.60;;;;;;5032115;28;20080;-67
2022/09/06 08:19:22;;;;;;;12.85;11.55;;;23.30;87.70;;;;;;5031759;28;20459;-66
2022/09/06 08:21:48;;;;;;;13.77;12.18;;;23.50;86.70;;;;;;5031938;28;20423;-67
2022/09/06 08:24:14;;;;;;;14.43;11.82;;;23.80;85.30;;;;;;5031833;28;20431;-68
2022/09/06 08:26:41;;;;;;;12.60;11.18;;;23.90;84.30;;;;;;5031807;28;20447;-67
2022/09/06 08:29:08;;;;;;;17.95;11.73;;;24.10;84.60;;;;;;5031727;28;20408;-68
2022/09/06 08:31:36;;;;;;;13.15;11.68;;;24.30;83.40;;;;;;5067445;22;20131;-70
2022/09/06 08:34:02;;;;;;;15.23;12.00;;;24.20;82.00;;;;;;5069663;28;20048;-67
2022/09/06 08:36:29;;;;;;;13.55;11.73;;;24.00;81.90;;;;;;5070806;28;20177;-67
2022/09/06 08:38:56;;;;;;;15.52;12.63;;;23.50;82.40;;;;;;5071456;28;20413;-68
2022/09/06 08:41:47;;;;;;;16.92;12.30;;;23.20;83.80;;;;;;5071134;28;20037;-68
2022/09/06 08:44:21;;;;;;;15.02;13.45;;;22.90;84.60;;;;;;5068682;28;20451;-67
2022/09/06 08:46:55;;;;;;;15.93;12.88;;;22.90;85.20;;;;;;5071590;28;20029;-68
2022/09/06 08:49:23;;;;;;;14.38;12.98;;;23.10;85.60;;;;;;5070026;28;20127;-68
2022/09/06 08:51:48;;;;;;;17.95;13.60;;;23.40;85.60;;;;;;5071403;28;20036;-68
2022/09/06 08:54:29;;;;;;;16.13;14.43;;;23.70;84.70;;;;;;5070743;28;20048;-68
2022/09/06 08:57:08;;;;;;;16.10;13.52;;;23.80;83.50;;;;;;5070303;28;20125;-68
2022/09/06 08:59:39;;;;;;;14.13;12.75;;;24.00;82.20;;;;;;5071330;28;20040;-67
2022/09/06 09:02:20;;;;;;;14.98;12.25;;;24.30;81.80;;;;;;5071424;28;20047;-68
2022/09/06 09:04:53;;;;;;;16.83;11.80;;;24.00;80.30;;;;;;5070117;28;20096;-68
2022/09/06 09:07:42;;;;;;;13.15;11.75;;;24.10;80.90;;;;;;5070392;28;20112;-68
2022/09/06 09:10:23;;;;;;;14.35;11.85;;;24.20;80.80;;;;;;5069806;28;20036;-68
2022/09/06 09:12:49;;;;;;;13.85;12.43;;;24.30;80.90;;;;;;5071249;28;20037;-68
2022/09/06 09:15:17;;;;;;;14.27;12.95;;;24.30;80.40;;;;;;5071487;28;20083;-68
2022/09/06 09:17:45;;;;;;;14.07;12.60;;;24.40;79.80;;;;;;5070013;28;20044;-68
2022/09/06 09:20:11;;;;;;;15.25;12.57;;;24.40;79.80;;;;;;5071001;28;20044;-68
2022/09/06 09:22:38;;;;;;;16.35;14.10;;;24.60;79.20;;;;;;5070114;28;20041;-68
2022/09/06 09:25:08;;;;;;;17.45;13.48;;;24.40;79.20;;;;;;5070981;28;20526;-68
2022/09/06 09:27:34;;;;;;;16.58;14.05;;;24.50;79.00;;;;;;5071458;28;20037;-68
2022/09/06 09:30:04;;;;;;;15.60;13.07;;;24.30;79.20;;;;;;5069639;28;20078;-68
2022/09/06 09:32:31;;;;;;;15.65;12.52;;;24.20;79.00;;;;;;5069800;28;20037;-68
2022/09/06 09:35:18;;;;;;;13.88;12.50;;;24.00;79.50;;;;;;5071219;28;20410;-68
2022/09/06 09:37:44;;;;;;;16.33;12.30;;;23.80;79.40;;;;;;5071075;28;20509;-68
2022/09/06 09:40:28;;;;;;;16.55;13.77;;;23.70;80.10;;;;;;5070967;28;20047;-68
2022/09/06 09:43:07;;;;;;;15.63;13.07;;;23.60;80.70;;;;;;5071183;28;20048;-68
2022/09/06 09:45:33;;;;;;;15.38;12.60;;;23.70;81.40;;;;;;5070121;28;20045;-68
2022/09/06 09:48:19;;;;;;;15.55;13.38;;;23.60;81.60;;;;;;5074575;28;20447;-69
2022/09/06 09:50:45;;;;;;;14.25;12.80;;;23.50;81.00;;;;;;5074482;28;20032;-68
2022/09/06 09:53:17;;;;;;;14.10;12.10;;;23.50;81.70;;;;;;5074552;28;20036;-68
2022/09/06 09:55:44;;;;;;;13.95;12.45;;;23.50;82.00;;;;;;5074483;28;20110;-68
2022/09/06 09:58:25;;;;;;;14.93;12.38;;;23.40;82.10;;;;;;5074484;28;20524;-68
2022/09/06 10:01:14;;;;;;;17.15;12.95;;;23.60;81.90;;;;;;5074304;28;20044;-68
2022/09/06 10:03:40;;;;;;;17.80;12.95;;;23.70;82.00;;;;;;5074413;28;20044;-68
2022/09/06 10:06:10;;;;;;;15.65;12.70;;;23.80;82.00;;;;;;5073069;28;20040;-68
2022/09/06 10:08:39;;;;;;;15.68;13.00;;;23.90;81.60;;;;;;5074290;28;20036;-69
2022/09/06 10:11:04;;;;;;;17.38;13.23;;;23.80;81.70;;;;;;5073804;28;20033;-68
2022/09/06 10:13:30;;;;;;;17.67;13.15;;;23.90;81.50;;;;;;5074348;28;20044;-68
2022/09/06 10:15:58;;;;;;;17.05;12.88;;;24.00;81.00;;;;;;5074279;28;20047;-69
2022/09/06 10:18:36;;;;;;;13.23;11.82;;;24.00;81.20;;;;;;5073057;28;20148;-68
2022/09/06 10:21:21;;;;;;;16.20;12.90;;;24.10;81.60;;;;;;5073722;28;20040;-68
2022/09/06 10:24:10;;;;;;;13.15;11.50;;;24.10;80.90;;;;;;5074055;28;20048;-68
2022/09/06 10:26:46;;;;;;;20.75;13.57;;;24.10;80.70;;;;;;5074084;28;20032;-68
2022/09/06 10:29:13;;;;;;;17.15;12.65;;;24.10;80.40;;;;;;5072535;28;20041;-69
2022/09/06 10:31:38;;;;;;;16.42;12.18;;;24.20;80.50;;;;;;5073568;28;20083;-68
2022/09/06 10:34:28;;;;;;;17.27;11.70;;;24.20;79.90;;;;;;5073641;28;20574;-68
2022/09/06 10:37:06;;;;;;;13.13;10.75;;;24.30;79.60;;;;;;5073905;28;20047;-69
2022/09/06 10:39:54;;;;;;;13.20;11.82;;;24.30;79.50;;;;;;5073486;28;20115;-69
2022/09/06 10:42:36;;;;;;;12.65;11.15;;;24.20;78.90;;;;;;5073495;28;20409;-69
2022/09/06 10:45:33;;;;;;;12.50;11.23;;;24.30;79.00;;;;;;5073763;28;20136;-69
2022/09/06 10:48:20;;;;;;;15.05;10.73;;;24.20;79.00;;;;;;5073488;28;20033;-69
2022/09/06 10:50:59;;;;;;;15.43;11.65;;;24.20;79.00;;;;;;5073188;28;20109;-70
2022/09/06 10:53:33;;;;;;;14.15;10.35;;;24.30;78.80;;;;;;5073553;28;20040;-68
2022/09/06 10:56:15;;;;;;;11.52;10.43;;;24.20;78.10;;;;;;5072360;28;20402;-69
2022/09/06 10:58:57;;;;;;;11.45;9.20;;;24.30;77.70;;;;;;5073261;28;20075;-69
2022/09/06 11:01:49;;;;;;;14.40;10.30;;;24.30;77.30;;;;;;5073191;28;20043;-69
2022/09/06 11:04:26;;;;;;;11.85;9.95;;;24.40;77.80;;;;;;5073253;28;20052;-69
2022/09/06 11:06:58;;;;;;;11.02;10.00;;;24.40;77.10;;;;;;5073146;28;20111;-69
2022/09/06 11:09:32;;;;;;;10.15;8.98;;;24.30;76.90;;;;;;5072798;28;20469;-69
2022/09/06 11:12:02;;;;;;;13.68;9.13;;;24.40;76.90;;;;;;5073164;28;20036;-69
2022/09/06 11:14:29;;;;;;;11.32;9.35;;;24.40;76.40;;;;;;5071944;28;20166;-69
2022/09/06 11:17:10;;;;;;;10.40;9.15;;;24.40;76.30;;;;;;5072969;28;20048;-69
2022/09/06 11:20:15;;;;;;;14.63;9.55;;;24.40;76.30;;;;;;5072589;28;20044;-69
2022/09/06 11:23:12;;;;;;;11.75;8.32;;;24.50;76.60;;;;;;5067537;28;20241;-69
2022/09/06 11:26:03;;;;;;;10.02;8.20;;;24.60;75.40;;;;;;5072801;28;20097;-69
2022/09/06 11:28:58;;;;;;;11.52;8.30;;;24.70;75.40;;;;;;5072891;28;20075;-69
2022/09/06 11:31:31;;;;;;;11.00;9.07;;;24.70;74.50;;;;;;5072294;28;20041;-69
2022/09/06 11:34:17;;;;;;;12.27;8.25;;;24.60;74.40;;;;;;5072669;28;20037;-69
2022/09/06 11:37:00;;;;;;;11.70;8.18;;;24.70;74.30;;;;;;5072784;28;20509;-69
2022/09/06 11:39:32;;;;;;;21.77;7.22;;;24.70;74.00;;;;;;5072379;28;20054;-69
2022/09/06 11:41:58;;;;;;;15.15;8.13;;;24.80;73.60;;;;;;5072520;28;20116;-69
2022/09/06 11:44:49;;;;;;;9.05;7.68;;;24.90;73.80;;;;;;5072352;28;20040;-69
2022/09/06 11:47:41;;;;;;;14.68;8.48;;;24.90;73.50;;;;;;5071155;28;20048;-69
2022/09/06 11:50:44;;;;;;;27.00;8.82;;;25.00;73.10;;;;;;5072184;28;20421;-69
2022/09/06 11:53:16;;;;;;;;;;;25.00;73.10;;;;;;5072341;28;20394;-69
2022/09/06 11:55:47;;;;;;;15.63;8.80;;;25.10;73.20;;;;;;5072444;28;19924;-69
2022/09/06 11:58:19;;;;;;;12.65;8.00;;;25.10;73.10;;;;;;5072340;28;20037;-69
2022/09/06 12:01:05;;;;;;;8.93;7.93;;;25.00;72.80;;;;;;5071968;28;20102;-69
2022/09/06 12:03:46;;;;;;;12.43;8.15;;;25.00;72.70;;;;;;5071910;28;20098;-69
2022/09/06 12:06:19;;;;;;;10.27;8.75;;;25.10;73.40;;;;;;5072208;28;20072;-69
2022/09/06 12:08:46;;;;;;;11.02;8.20;;;25.30;72.50;;;;;;5071666;28;20062;-69
2022/09/06 12:11:40;;;;;;;11.85;7.75;;;25.20;71.90;;;;;;5071712;28;20043;-69
2022/09/06 12:14:48;;;;;;;9.20;7.63;;;25.30;71.90;;;;;;5072188;28;20080;-69
2022/09/06 12:17:13;;;;;;;10.18;7.60;;;25.40;71.50;;;;;;5066991;28;20197;-69
2022/09/06 12:19:48;;;;;;;9.65;7.65;;;25.50;71.90;;;;;;5053717;28;20540;-69
2022/09/06 12:22:45;;;;;;;21.20;8.85;;;25.40;71.00;;;;;;5071769;28;20044;-69
2022/09/06 12:25:19;;;;;;;10.50;8.07;;;25.50;71.50;;;;;;5067122;28;20056;-69
2022/09/06 12:28:00;;;;;;;12.85;8.93;;;25.50;71.20;;;;;;5071871;28;20051;-69
2022/09/06 12:30:35;;;;;;;17.33;9.40;;;25.40;70.90;;;;;;5071385;28;20045;-69
2022/09/06 12:33:06;;;;;;;12.70;9.35;;;25.50;71.30;;;;;;5070308;28;20044;-69
2022/09/06 12:35:33;;;;;;;15.73;9.77;;;25.60;71.40;;;;;;5071647;28;20560;-69
2022/09/06 12:38:04;;;;;;;13.30;9.15;;;25.60;71.20;;;;;;5070437;28;20047;-69
2022/09/06 12:40:32;;;;;;;28.10;11.40;;;25.60;71.20;;;;;;5071501;28;20040;-69
2022/09/06 12:42:59;;;;;;;21.25;10.70;;;25.60;70.70;;;;;;5071541;28;20041;-69
2022/09/06 12:45:25;;;;;;;10.60;8.88;;;25.70;70.50;;;;;;5071436;28;20415;-69
2022/09/06 12:48:12;;;;;;;14.32;8.13;;;25.70;70.30;;;;;;5070284;28;20044;-69
2022/09/06 12:50:39;;;;;;;10.50;8.10;;;25.80;70.10;;;;;;5070044;28;20045;-69
2022/09/06 12:53:25;;;;;;;12.95;8.93;;;25.70;70.20;;;;;;5071419;28;20048;-69
2022/09/06 12:56:03;;;;;;;10.25;8.00;;;25.80;70.30;;;;;;5070797;28;20040;-69
2022/09/06 12:58:29;;;;;;;12.05;7.90;;;26.00;69.30;;;;;;5069228;28;20036;-68